Time;durP1;ratioP1;P1;durP2;ratioP2;P2;SDS_P1;SDS_P2;PMS_P1;PMS_P2;Temp;Humidity;BMP_temperature;BMP_pressure;BME280_temperature;BME280_humidity;BME280_pressure;Samples;Min_cycle;Max_cycle;Signal;HPM_P1;HPM_P2
2023/03/08 00:01:13;;;;;;;3.83;1.00;;;0.80;99.90;;;;;;5009464;28;20038;-89
2023/03/08 00:03:40;;;;;;;4.65;1.08;;;0.80;99.90;;;;;;5007465;28;20413;-90
2023/03/08 00:06:07;;;;;;;3.53;1.08;;;0.80;99.90;;;;;;5006087;28;20034;-89
2023/03/08 00:08:33;;;;;;;4.55;1.50;;;0.80;99.90;;;;;;5011280;28;20489;-90
2023/03/08 00:10:59;;;;;;;3.33;1.17;;;0.80;99.90;;;;;;4994022;28;20084;-88
2023/03/08 00:13:25;;;;;;;3.38;1.33;;;0.80;99.90;;;;;;4990695;28;20038;-89
2023/03/08 00:15:51;;;;;;;6.40;1.20;;;0.70;99.90;;;;;;4993631;28;20053;-89
2023/03/08 00:18:17;;;;;;;4.07;1.13;;;0.70;99.90;;;;;;5013584;28;20050;-89
2023/03/08 00:20:43;;;;;;;2.60;1.02;;;0.70;99.90;;;;;;4996899;28;20045;-89
2023/03/08 00:23:09;;;;;;;4.30;1.00;;;0.70;99.90;;;;;;5010792;28;20036;-89
2023/03/08 00:25:34;;;;;;;2.35;1.20;;;0.70;99.90;;;;;;4998179;28;20038;-89
2023/03/08 00:28:03;;;;;;;4.38;1.33;;;0.70;99.90;;;;;;4997850;28;20236;-89
2023/03/08 00:30:31;;;;;;;4.10;1.33;;;0.70;99.90;;;;;;5011112;28;20084;-88
2023/03/08 00:33:00;;;;;;;4.47;1.10;;;0.70;99.90;;;;;;5000443;28;20060;-89
2023/03/08 00:35:28;;;;;;;6.05;1.40;;;1.10;99.90;;;;;;4997484;28;20141;-89
2023/03/08 00:37:54;;;;;;;5.10;1.48;;;0.60;99.90;;;;;;5014731;28;20116;-88
2023/03/08 00:40:22;;;;;;;5.88;2.03;;;0.60;99.90;;;;;;5008108;28;20420;-88
2023/03/08 00:42:50;;;;;;;3.17;1.20;;;0.60;99.90;;;;;;4993186;28;20042;-89
2023/03/08 00:45:16;;;;;;;3.92;1.20;;;0.60;99.90;;;;;;4989688;28;20046;-89
2023/03/08 00:47:43;;;;;;;3.10;1.10;;;-0.20;99.90;;;;;;4995383;28;20459;-89
2023/03/08 00:50:09;;;;;;;4.20;1.70;;;0.90;99.90;;;;;;5016094;28;20033;-89
2023/03/08 00:52:35;;;;;;;5.60;1.63;;;0.60;99.90;;;;;;5010723;28;20034;-89
2023/03/08 00:55:00;;;;;;;6.65;1.63;;;0.60;99.90;;;;;;4992251;28;20104;-89
2023/03/08 00:57:36;;;;;;;3.88;1.35;;;0.60;99.90;;;;;;5011462;28;20042;-89
2023/03/08 01:00:07;;;;;;;3.65;1.40;;;0.60;99.90;;;;;;4992174;28;20077;-89
2023/03/08 01:02:35;;;;;;;3.08;1.25;;;0.50;99.90;;;;;;5010351;28;20490;-89
2023/03/08 01:05:04;;;;;;;2.53;1.13;;;0.50;99.90;;;;;;5001687;28;20037;-89
2023/03/08 01:07:29;;;;;;;4.05;1.63;;;0.50;99.90;;;;;;5010445;28;20567;-89
2023/03/08 01:10:04;;;;;;;4.75;1.40;;;0.50;99.90;;;;;;5018958;28;20076;-89
2023/03/08 01:12:33;;;;;;;;;;;0.50;99.90;;;;;;5017635;28;20030;-89
2023/03/08 01:15:06;;;;;;;5.03;1.20;;;0.50;99.90;;;;;;5019683;28;19961;-88
2023/03/08 01:17:32;;;;;;;3.67;1.30;;;0.50;99.90;;;;;;5009937;28;20037;-89
2023/03/08 01:19:58;;;;;;;4.40;1.48;;;0.50;99.90;;;;;;5010548;28;20044;-89
2023/03/08 01:22:23;;;;;;;4.05;1.52;;;0.50;99.90;;;;;;4993469;28;20049;-89
2023/03/08 01:24:52;;;;;;;4.57;1.17;;;0.50;99.90;;;;;;5012138;28;20125;-89
2023/03/08 01:27:17;;;;;;;3.50;1.10;;;0.50;99.90;;;;;;5010119;28;20034;-90
2023/03/08 01:29:47;;;;;;;4.05;1.23;;;0.50;99.90;;;;;;4973930;28;20141;-89
2023/03/08 01:32:12;;;;;;;2.60;1.05;;;0.50;99.90;;;;;;5011585;28;20041;-90
2023/03/08 01:34:38;;;;;;;3.55;1.13;;;0.40;99.90;;;;;;5008161;28;20633;-89
2023/03/08 01:37:04;;;;;;;3.95;1.00;;;0.40;99.90;;;;;;5008021;28;20037;-90
2023/03/08 01:39:31;;;;;;;2.30;1.00;;;0.40;99.90;;;;;;4996060;28;20046;-89
2023/03/08 01:42:08;;;;;;;5.88;1.35;;;0.40;99.90;;;;;;4991273;28;20081;-89
2023/03/08 01:45:02;;;;;;;3.97;0.93;;;0.40;99.90;;;;;;4999727;28;20045;-89
2023/03/08 01:47:30;;;;;;;2.63;1.00;;;0.40;99.90;;;;;;4998488;28;20050;-89
2023/03/08 01:50:10;;;;;;;4.32;1.02;;;0.50;99.90;;;;;;4993424;28;20521;-90
2023/03/08 01:52:45;;;;;;;4.22;1.10;;;0.40;99.90;;;;;;4993718;28;20054;-88
2023/03/08 01:55:13;;;;;;;4.82;1.10;;;0.40;99.90;;;;;;4991398;28;20061;-89
2023/03/08 01:57:42;;;;;;;4.63;1.05;;;0.40;99.90;;;;;;4987774;28;20050;-89
2023/03/08 02:00:16;;;;;;;6.95;1.20;;;0.40;99.90;;;;;;4972802;28;20042;-89
2023/03/08 02:02:48;;;;;;;3.90;1.10;;;0.40;99.90;;;;;;4991391;28;20088;-89
2023/03/08 02:05:18;;;;;;;3.25;1.10;;;0.30;99.90;;;;;;4992694;28;20042;-89
2023/03/08 02:07:43;;;;;;;5.35;1.67;;;0.30;99.90;;;;;;4991356;28;20113;-89
2023/03/08 02:10:11;;;;;;;6.53;1.10;;;0.30;99.90;;;;;;4989542;28;20552;-89
2023/03/08 02:12:38;;;;;;;2.67;0.82;;;0.30;99.90;;;;;;4997644;28;20129;-88
2023/03/08 02:15:07;;;;;;;1.63;0.70;;;0.30;99.90;;;;;;4989681;28;20613;-89
2023/03/08 02:17:38;;;;;;;3.70;0.90;;;0.30;99.90;;;;;;4992727;28;20061;-90
2023/03/08 02:20:20;;;;;;;4.05;0.93;;;0.30;99.90;;;;;;4984367;28;20045;-90
2023/03/08 02:22:52;;;;;;;2.97;0.90;;;0.30;99.90;;;;;;4990716;28;20414;-90
2023/03/08 02:25:24;;;;;;;3.17;0.70;;;0.30;99.90;;;;;;4993193;28;20042;-89
2023/03/08 02:27:52;;;;;;;6.35;1.10;;;0.30;99.90;;;;;;4995468;28;20498;-89
2023/03/08 02:30:25;;;;;;;4.60;1.00;;;0.30;99.90;;;;;;4995257;28;20042;-90
2023/03/08 02:32:58;;;;;;;4.63;0.90;;;0.30;99.90;;;;;;4988332;28;20162;-89
2023/03/08 02:35:24;;;;;;;3.40;1.20;;;0.30;99.90;;;;;;4987755;28;20042;-89
2023/03/08 02:37:53;;;;;;;3.60;1.20;;;0.20;99.90;;;;;;4989128;28;20081;-89
2023/03/08 02:40:19;;;;;;;3.15;1.27;;;0.20;99.90;;;;;;5003798;28;20042;-89
2023/03/08 02:42:46;;;;;;;5.68;1.30;;;0.20;99.90;;;;;;4986167;28;20108;-89
2023/03/08 02:45:11;;;;;;;3.92;1.15;;;0.20;99.90;;;;;;4992490;28;20053;-89
2023/03/08 02:47:43;;;;;;;4.05;1.25;;;0.20;99.90;;;;;;5009764;28;20046;-89
2023/03/08 02:50:09;;;;;;;3.53;1.60;;;0.20;99.90;;;;;;5019563;28;20084;-88
2023/03/08 02:52:35;;;;;;;3.88;1.15;;;0.20;99.90;;;;;;4983155;28;20542;-89
2023/03/08 02:55:01;;;;;;;3.55;1.60;;;-0.10;99.90;;;;;;4994219;28;20045;-89
2023/03/08 02:57:26;;;;;;;3.78;1.08;;;0.20;99.90;;;;;;5008269;28;20140;-88
2023/03/08 02:59:57;;;;;;;3.42;1.27;;;0.20;99.90;;;;;;5010438;28;20030;-89
2023/03/08 03:02:23;;;;;;;2.83;1.10;;;0.20;99.90;;;;;;5016047;28;20053;-89
2023/03/08 03:04:48;;;;;;;4.00;1.17;;;0.20;99.90;;;;;;4994700;28;20045;-90
2023/03/08 03:07:14;;;;;;;3.17;1.13;;;0.20;99.90;;;;;;4990934;28;20037;-89
2023/03/08 03:09:42;;;;;;;3.75;1.20;;;0.20;99.90;;;;;;5008379;28;20037;-90
2023/03/08 03:12:08;;;;;;;2.55;1.10;;;0.20;99.90;;;;;;4994650;28;20134;-89
2023/03/08 03:14:34;;;;;;;3.25;1.42;;;0.30;99.90;;;;;;5007951;28;20046;-90
2023/03/08 03:16:59;;;;;;;4.43;1.27;;;0.20;99.90;;;;;;4992566;28;20042;-90
2023/03/08 03:19:27;;;;;;;2.97;1.10;;;0.20;99.90;;;;;;5016335;28;20049;-90
2023/03/08 03:21:55;;;;;;;4.45;1.20;;;0.20;99.90;;;;;;4995582;28;20038;-89
2023/03/08 03:24:21;;;;;;;5.00;2.10;;;0.20;99.90;;;;;;5012148;28;20751;-90
2023/03/08 03:26:51;;;;;;;5.32;1.50;;;0.70;99.90;;;;;;4989178;28;20076;-89
2023/03/08 03:29:17;;;;;;;3.10;1.10;;;0.20;99.90;;;;;;5012308;28;20042;-89
2023/03/08 03:31:43;;;;;;;2.83;1.35;;;0.20;99.90;;;;;;5011764;28;20041;-89
2023/03/08 03:34:13;;;;;;;3.88;1.52;;;0.10;99.90;;;;;;5008066;28;20119;-89
2023/03/08 03:36:39;;;;;;;3.83;1.20;;;0.10;99.90;;;;;;4995754;28;20120;-89
2023/03/08 03:39:04;;;;;;;2.85;1.30;;;0.10;99.90;;;;;;4989131;28;20589;-90
2023/03/08 03:41:33;;;;;;;4.53;1.58;;;0.10;99.90;;;;;;4988952;28;20042;-89
2023/03/08 03:44:02;;;;;;;3.17;1.02;;;0.10;99.90;;;;;;4987070;28;20033;-89
2023/03/08 03:46:33;;;;;;;4.22;1.58;;;0.10;99.90;;;;;;4989034;28;20540;-89
2023/03/08 03:48:59;;;;;;;3.60;1.40;;;0.10;99.90;;;;;;4989639;28;20083;-89
2023/03/08 03:51:25;;;;;;;2.53;1.08;;;0.10;99.90;;;;;;5011990;28;20037;-90
2023/03/08 03:53:53;;;;;;;2.83;1.15;;;0.10;99.90;;;;;;4973756;28;20065;-89
2023/03/08 03:56:22;;;;;;;3.53;1.40;;;0.00;99.90;;;;;;4998500;28;20056;-90
2023/03/08 03:58:48;;;;;;;5.00;1.38;;;0.10;99.90;;;;;;5015550;28;20139;-90
2023/03/08 04:01:25;;;;;;;2.70;1.23;;;0.10;99.90;;;;;;4979181;28;20071;-89
2023/03/08 04:03:52;;;;;;;3.63;1.58;;;0.10;99.90;;;;;;4991464;28;20086;-90
2023/03/08 04:06:33;;;;;;;3.00;1.05;;;0.00;99.90;;;;;;5006908;28;20037;-89
2023/03/08 04:09:05;;;;;;;4.00;1.70;;;0.00;99.90;;;;;;4989241;28;20481;-89
2023/03/08 04:11:36;;;;;;;3.40;1.05;;;0.00;99.90;;;;;;5018311;28;20062;-89
2023/03/08 04:14:02;;;;;;;1.92;1.10;;;0.00;99.90;;;;;;4978264;28;20060;-89
2023/03/08 04:16:37;;;;;;;3.28;1.30;;;0.00;99.90;;;;;;4989966;28;20049;-89
2023/03/08 04:19:09;;;;;;;3.55;1.33;;;0.00;99.90;;;;;;5017195;28;20042;-91
2023/03/08 04:21:35;;;;;;;3.40;1.10;;;0.00;99.90;;;;;;4995471;28;20558;-90
2023/03/08 04:24:03;;;;;;;1.77;0.93;;;0.00;99.90;;;;;;4989710;28;20070;-89
2023/03/08 04:26:29;;;;;;;4.60;1.40;;;0.00;99.90;;;;;;5006928;28;20048;-90
2023/03/08 04:28:56;;;;;;;2.50;1.00;;;0.00;99.90;;;;;;5007633;28;20400;-90
2023/03/08 04:31:30;;;;;;;4.95;1.30;;;-0.10;99.90;;;;;;4993539;28;20133;-89
2023/03/08 04:33:57;;;;;;;5.40;1.40;;;-0.10;99.90;;;;;;4991601;28;20077;-89
2023/03/08 04:36:26;;;;;;;2.55;1.20;;;-0.10;99.90;;;;;;5016426;28;20034;-89
2023/03/08 04:38:51;;;;;;;2.22;0.98;;;-0.10;99.90;;;;;;5007101;28;20493;-90
2023/03/08 04:41:18;;;;;;;4.25;1.80;;;-0.10;99.90;;;;;;5008106;28;20092;-90
2023/03/08 04:43:52;;;;;;;4.65;1.27;;;-0.10;99.90;;;;;;4995675;28;20053;-90
2023/03/08 04:46:19;;;;;;;;;;;-0.10;99.90;;;;;;5010996;28;20057;-89
2023/03/08 04:48:44;;;;;;;5.15;1.48;;;-0.10;99.90;;;;;;4993352;28;20272;-90
2023/03/08 04:51:12;;;;;;;3.20;1.27;;;-0.10;99.90;;;;;;4997700;28;20104;-90
2023/03/08 04:53:40;;;;;;;4.40;1.40;;;-0.10;99.90;;;;;;5008132;28;20515;-90
2023/03/08 04:56:07;;;;;;;7.22;1.85;;;-0.10;99.90;;;;;;4998004;28;20034;-90
2023/03/08 04:58:34;;;;;;;6.55;1.67;;;-0.10;99.90;;;;;;4994485;28;20049;-90
2023/03/08 05:01:26;;;;;;;3.50;1.40;;;-0.10;99.90;;;;;;5010471;28;20046;-89
2023/03/08 05:03:52;;;;;;;4.85;2.17;;;-0.10;99.90;;;;;;5005429;28;20049;-90
2023/03/08 05:06:19;;;;;;;3.85;1.67;;;-0.20;99.90;;;;;;5016923;28;20040;-90
2023/03/08 05:08:45;;;;;;;5.35;1.80;;;-0.20;99.90;;;;;;4996740;28;20037;-89
2023/03/08 05:11:21;;;;;;;4.68;1.95;;;-0.20;99.90;;;;;;5010583;28;20045;-89
2023/03/08 05:13:47;;;;;;;4.75;2.60;;;-0.20;99.90;;;;;;5014703;28;20045;-90
2023/03/08 05:16:14;;;;;;;5.53;2.75;;;-0.20;99.90;;;;;;5000738;28;20112;-90
2023/03/08 05:18:39;;;;;;;4.78;2.20;;;-0.20;99.90;;;;;;5000632;28;20054;-89
2023/03/08 05:21:16;;;;;;;6.68;3.00;;;-0.30;99.90;;;;;;5009629;28;20370;-89
2023/03/08 05:23:43;;;;;;;6.63;3.17;;;-0.30;99.90;;;;;;5008868;28;20042;-89
2023/03/08 05:26:12;;;;;;;7.45;3.38;;;-0.30;99.90;;;;;;4995025;28;20284;-90
2023/03/08 05:28:44;;;;;;;7.28;4.03;;;0.30;99.90;;;;;;4991903;28;20789;-90
2023/03/08 05:31:18;;;;;;;10.85;4.78;;;-0.30;99.90;;;;;;4991280;28;20071;-89
2023/03/08 05:33:48;;;;;;;9.13;4.60;;;-0.40;99.90;;;;;;4975086;28;20077;-90
2023/03/08 05:36:14;;;;;;;5.15;2.88;;;-0.40;99.90;;;;;;5008627;28;20040;-90
2023/03/08 05:38:40;;;;;;;8.75;5.45;;;-0.40;99.90;;;;;;4995473;28;20041;-89
2023/03/08 05:41:08;;;;;;;9.75;5.22;;;-0.40;99.90;;;;;;5015353;28;20069;-89
2023/03/08 05:43:34;;;;;;;11.43;6.10;;;-0.40;99.90;;;;;;4991543;28;20045;-90
2023/03/08 05:46:06;;;;;;;10.35;5.25;;;-0.40;99.90;;;;;;4978611;28;20054;-90
2023/03/08 05:48:33;;;;;;;13.00;7.07;;;-0.40;99.90;;;;;;5008743;28;20049;-90
2023/03/08 05:51:07;;;;;;;6.38;3.22;;;-0.40;99.90;;;;;;5009626;28;20096;-89
2023/03/08 05:53:33;;;;;;;10.57;6.63;;;-0.20;99.90;;;;;;5011266;28;20046;-90
2023/03/08 05:56:15;;;;;;;18.25;12.68;;;-0.40;99.90;;;;;;4991049;28;20417;-89
2023/03/08 05:58:42;;;;;;;13.55;8.10;;;-0.40;99.90;;;;;;4996149;28;20228;-89
2023/03/08 06:01:28;;;;;;;8.63;5.25;;;-0.40;99.90;;;;;;5009676;28;20056;-90
2023/03/08 06:03:59;;;;;;;8.95;4.97;;;-0.40;99.90;;;;;;5013331;28;20042;-90
2023/03/08 06:06:26;;;;;;;14.85;9.48;;;-0.40;99.90;;;;;;4991355;28;20600;-89
2023/03/08 06:08:53;;;;;;;17.88;9.40;;;-0.40;99.90;;;;;;5013582;28;20129;-88
2023/03/08 06:11:19;;;;;;;12.15;8.52;;;-0.40;99.90;;;;;;5009680;28;20141;-89
2023/03/08 06:13:44;;;;;;;12.75;8.32;;;-0.40;99.90;;;;;;5026245;28;20091;-89
2023/03/08 06:16:10;;;;;;;13.93;8.27;;;-0.40;99.90;;;;;;5009156;28;20385;-89
2023/03/08 06:18:38;;;;;;;14.68;9.43;;;0.20;99.90;;;;;;5003587;28;20365;-89
2023/03/08 06:21:12;;;;;;;11.75;8.35;;;-0.40;99.90;;;;;;4992454;28;20044;-90
2023/03/08 06:23:38;;;;;;;14.55;10.23;;;-0.40;99.90;;;;;;5008233;28;20040;-90
2023/03/08 06:26:05;;;;;;;12.75;9.07;;;-0.40;99.90;;;;;;4996173;28;20074;-90
2023/03/08 06:28:32;;;;;;;11.20;8.38;;;-0.40;99.90;;;;;;5017019;28;20042;-89
2023/03/08 06:30:57;;;;;;;13.63;8.65;;;-0.40;99.90;;;;;;5020404;28;20041;-90
2023/03/08 06:33:26;;;;;;;11.90;7.53;;;-0.40;99.90;;;;;;5017905;28;20038;-90
2023/03/08 06:36:07;;;;;;;13.48;9.43;;;-0.40;99.90;;;;;;5008390;28;20084;-91
2023/03/08 06:38:34;;;;;;;14.98;10.18;;;-0.40;99.90;;;;;;4993467;28;20037;-89
2023/03/08 06:41:00;;;;;;;12.88;9.32;;;-0.40;99.90;;;;;;4998802;28;20045;-90
2023/03/08 06:43:27;;;;;;;16.38;10.13;;;-0.40;99.90;;;;;;4993573;28;20026;-90
2023/03/08 06:45:52;;;;;;;16.40;9.27;;;-0.40;99.90;;;;;;5012342;28;20057;-90
2023/03/08 06:48:21;;;;;;;12.88;10.15;;;-0.40;99.90;;;;;;4999535;28;20103;-90
2023/03/08 06:50:46;;;;;;;14.15;9.13;;;-0.40;99.90;;;;;;5018079;28;20073;-90
2023/03/08 06:53:12;;;;;;;13.25;9.65;;;-0.40;99.90;;;;;;5004492;28;20164;-91
2023/03/08 06:55:42;;;;;;;15.25;10.43;;;-0.30;99.90;;;;;;4977089;28;20102;-90
2023/03/08 06:58:08;;;;;;;9.85;7.35;;;-0.30;99.90;;;;;;4993155;28;20041;-88
2023/03/08 07:00:34;;;;;;;17.88;9.15;;;-0.30;99.90;;;;;;4980682;28;20030;-90
2023/03/08 07:03:00;;;;;;;12.65;9.45;;;-0.20;99.90;;;;;;5011403;28;20936;-88
2023/03/08 07:05:28;;;;;;;11.05;8.02;;;-0.20;99.90;;;;;;5011377;28;20034;-89
2023/03/08 07:07:54;;;;;;;12.23;9.27;;;-0.20;99.90;;;;;;4980482;28;20063;-88
2023/03/08 07:10:21;;;;;;;13.98;10.25;;;-0.10;99.90;;;;;;4993890;28;20497;-88
2023/03/08 07:12:50;;;;;;;11.80;8.07;;;-0.10;99.90;;;;;;5014256;28;20385;-88
2023/03/08 07:15:18;;;;;;;13.77;9.98;;;-0.10;99.90;;;;;;5000203;28;20041;-89
2023/03/08 07:17:45;;;;;;;13.95;10.10;;;-0.10;99.90;;;;;;5012274;28;20076;-88
2023/03/08 07:20:13;;;;;;;12.38;9.40;;;0.00;99.90;;;;;;4997153;28;20049;-87
2023/03/08 07:22:40;;;;;;;18.25;11.40;;;0.00;99.90;;;;;;5013705;28;20286;-91
2023/03/08 07:25:10;;;;;;;11.18;9.20;;;0.00;99.90;;;;;;5023448;28;20094;-89
2023/03/08 07:27:36;;;;;;;15.68;10.43;;;0.00;99.90;;;;;;4995445;28;20117;-88
2023/03/08 07:30:02;;;;;;;13.63;10.57;;;0.00;99.90;;;;;;5001604;28;20167;-88
2023/03/08 07:32:27;;;;;;;15.75;9.68;;;0.10;99.90;;;;;;5024149;28;20403;-88
2023/03/08 07:34:56;;;;;;;14.80;11.55;;;0.10;99.90;;;;;;4980513;28;20048;-88
2023/03/08 07:37:23;;;;;;;13.63;9.27;;;0.20;99.90;;;;;;5010152;28;20041;-88
2023/03/08 07:39:49;;;;;;;16.67;10.32;;;0.20;99.90;;;;;;5015880;28;20034;-89
2023/03/08 07:42:15;;;;;;;16.75;11.15;;;0.20;99.90;;;;;;5010657;28;20113;-88
2023/03/08 07:44:41;;;;;;;16.30;11.50;;;0.30;99.90;;;;;;4996492;28;21082;-88
2023/03/08 07:47:07;;;;;;;15.05;10.63;;;0.30;99.90;;;;;;5013854;28;20046;-88
2023/03/08 07:49:33;;;;;;;12.30;9.77;;;0.30;99.90;;;;;;4992560;28;20451;-89
2023/03/08 07:51:58;;;;;;;13.52;9.35;;;0.40;99.90;;;;;;5003052;28;20045;-87
2023/03/08 07:54:24;;;;;;;12.88;9.85;;;0.40;99.90;;;;;;5011344;28;20034;-88
2023/03/08 07:56:54;;;;;;;13.05;9.43;;;0.40;99.90;;;;;;4989063;28;20045;-88
2023/03/08 07:59:21;;;;;;;14.05;9.88;;;0.50;99.90;;;;;;4996500;28;20042;-88
2023/03/08 08:01:47;;;;;;;12.43;9.48;;;1.30;99.90;;;;;;4989951;28;20069;-88
2023/03/08 08:04:16;;;;;;;13.82;9.68;;;0.60;99.90;;;;;;4991832;28;20041;-87
2023/03/08 08:06:42;;;;;;;13.30;9.15;;;0.60;99.90;;;;;;5013402;28;20084;-88
2023/03/08 08:09:10;;;;;;;13.52;8.75;;;0.60;99.90;;;;;;5016948;28;20070;-88
2023/03/08 08:11:37;;;;;;;11.85;9.00;;;0.70;99.90;;;;;;4977505;28;20048;-87
2023/03/08 08:14:04;;;;;;;13.43;9.88;;;0.70;99.90;;;;;;4994300;28;20513;-88
2023/03/08 08:16:30;;;;;;;13.65;9.63;;;0.70;99.90;;;;;;4993892;28;20156;-88
2023/03/08 08:18:55;;;;;;;12.15;10.50;;;0.80;99.90;;;;;;5009110;28;20038;-88
2023/03/08 08:21:30;;;;;;;14.82;10.10;;;0.80;99.90;;;;;;5011278;28;20057;-88
2023/03/08 08:23:56;;;;;;;15.55;10.32;;;0.00;99.90;;;;;;4991351;28;20068;-88
2023/03/08 08:26:23;;;;;;;12.63;9.55;;;1.00;99.90;;;;;;4995551;28;20060;-88
2023/03/08 08:28:51;;;;;;;16.00;10.00;;;0.90;99.90;;;;;;5010237;28;20044;-87
2023/03/08 08:31:20;;;;;;;13.73;10.18;;;1.10;99.90;;;;;;4994388;28;20038;-88
2023/03/08 08:33:46;;;;;;;14.68;9.63;;;1.10;99.90;;;;;;4994734;28;20054;-88
2023/03/08 08:36:14;;;;;;;12.02;8.48;;;1.10;99.90;;;;;;4996910;28;20096;-88
2023/03/08 08:38:44;;;;;;;11.55;9.35;;;1.20;99.90;;;;;;5005290;28;20057;-88
2023/03/08 08:41:14;;;;;;;9.68;7.43;;;1.30;99.90;;;;;;5003315;28;20054;-90
2023/03/08 08:43:40;;;;;;;14.07;9.80;;;1.30;99.90;;;;;;4990520;28;20034;-88
2023/03/08 08:46:07;;;;;;;12.27;9.82;;;1.40;99.90;;;;;;5021224;28;20069;-90
2023/03/08 08:48:37;;;;;;;12.82;9.40;;;1.40;99.90;;;;;;5006067;28;20033;-90
2023/03/08 08:51:08;;;;;;;15.48;8.90;;;1.50;99.90;;;;;;4985430;28;20048;-92
2023/03/08 08:53:35;;;;;;;12.07;8.63;;;1.50;99.90;;;;;;4994524;28;20050;-93
2023/03/08 08:56:22;;;;;;;14.13;9.02;;;1.60;99.90;;;;;;5022242;28;20060;-92
2023/03/08 08:58:47;;;;;;;11.48;8.02;;;1.70;99.90;;;;;;4997272;28;20116;-92
2023/03/08 09:01:20;;;;;;;14.85;8.77;;;1.80;99.90;;;;;;5020323;28;20133;-92
2023/03/08 09:03:48;;;;;;;11.35;8.25;;;1.80;99.90;;;;;;4981109;28;20061;-92
2023/03/08 09:06:16;;;;;;;12.13;8.02;;;1.90;99.90;;;;;;5027117;28;20041;-92
2023/03/08 09:08:42;;;;;;;11.98;7.95;;;2.00;99.90;;;;;;5006280;28;20061;-92
2023/03/08 09:11:09;;;;;;;10.05;7.63;;;2.00;99.90;;;;;;5002517;28;20485;-91
2023/03/08 09:13:41;;;;;;;9.82;7.85;;;2.10;99.90;;;;;;5031044;28;20037;-92
2023/03/08 09:16:19;;;;;;;12.00;7.32;;;2.10;99.90;;;;;;5020619;28;20046;-92
2023/03/08 09:18:45;;;;;;;11.68;7.60;;;3.00;99.90;;;;;;5020514;28;20045;-92
2023/03/08 09:21:12;;;;;;;10.82;7.63;;;2.20;99.90;;;;;;4983156;28;20054;-91
2023/03/08 09:23:41;;;;;;;10.82;7.40;;;2.30;99.90;;;;;;5015073;28;20041;-91
2023/03/08 09:26:07;;;;;;;12.15;7.25;;;2.30;99.90;;;;;;5005768;28;20037;-91
2023/03/08 09:28:33;;;;;;;13.73;7.07;;;2.40;99.90;;;;;;5007507;28;20047;-91
2023/03/08 09:31:01;;;;;;;10.80;6.82;;;2.40;99.90;;;;;;5004049;28;20120;-91
2023/03/08 09:33:27;;;;;;;11.75;6.72;;;2.40;99.90;;;;;;5015491;28;20084;-91
2023/03/08 09:35:58;;;;;;;9.18;6.32;;;2.50;99.90;;;;;;5004271;28;20081;-92
2023/03/08 09:38:29;;;;;;;9.15;6.72;;;2.50;99.90;;;;;;5000861;28;20398;-92
2023/03/08 09:41:15;;;;;;;8.40;6.43;;;2.60;99.90;;;;;;4994553;28;20100;-90
2023/03/08 09:44:06;;;;;;;7.88;6.03;;;2.60;99.90;;;;;;5012990;28;20108;-91
2023/03/08 09:46:57;;;;;;;8.93;5.93;;;2.70;99.90;;;;;;5003205;28;20057;-92
2023/03/08 09:49:28;;;;;;;9.40;4.82;;;3.50;99.90;;;;;;5009801;28;20029;-92
2023/03/08 09:52:33;;;;;;;8.05;4.20;;;2.80;99.90;;;;;;5008700;28;20076;-91
2023/03/08 09:55:00;;;;;;;9.05;5.03;;;2.90;99.90;;;;;;4973589;28;20064;-92
2023/03/08 09:57:33;;;;;;;7.35;4.30;;;3.00;99.90;;;;;;4993622;28;20042;-92
2023/03/08 10:00:07;;;;;;;10.82;4.60;;;3.00;99.90;;;;;;5005376;28;20049;-91
2023/03/08 10:02:55;;;;;;;8.23;4.28;;;3.10;99.90;;;;;;4996091;28;20037;-91
2023/03/08 10:05:31;;;;;;;8.02;4.10;;;3.20;99.90;;;;;;5022275;28;20044;-91
2023/03/08 10:08:09;;;;;;;7.80;3.08;;;3.30;99.90;;;;;;5019819;28;20042;-91
2023/03/08 10:10:52;;;;;;;6.60;3.92;;;3.30;99.90;;;;;;4996385;28;20121;-91
2023/03/08 10:13:26;;;;;;;9.00;5.00;;;3.40;99.90;;;;;;4994137;28;20045;-92
2023/03/08 10:16:11;;;;;;;8.23;4.10;;;3.50;99.90;;;;;;5023710;28;20062;-91
2023/03/08 10:18:58;;;;;;;6.95;3.60;;;3.50;99.90;;;;;;4994651;28;20484;-91
2023/03/08 10:21:26;;;;;;;6.75;2.85;;;3.60;99.90;;;;;;5006757;28;20038;-91
2023/03/08 10:24:13;;;;;;;7.18;4.10;;;3.60;99.90;;;;;;5004259;28;20101;-90
2023/03/08 10:26:43;;;;;;;9.52;3.55;;;3.70;99.90;;;;;;5026348;28;20472;-91
2023/03/08 10:29:13;;;;;;;6.50;3.50;;;4.50;99.90;;;;;;5017718;28;20125;-91
2023/03/08 10:31:41;;;;;;;6.60;2.63;;;4.00;99.90;;;;;;5028449;28;20041;-91
2023/03/08 10:34:20;;;;;;;5.15;2.55;;;4.10;99.90;;;;;;5010194;28;20107;-91
2023/03/08 10:37:06;;;;;;;8.25;2.90;;;4.20;99.90;;;;;;5020569;28;20045;-92
2023/03/08 10:39:34;;;;;;;6.65;3.38;;;4.30;99.90;;;;;;4979863;28;20038;-92
2023/03/08 10:42:05;;;;;;;8.57;3.30;;;4.50;99.90;;;;;;5012582;28;20117;-91
2023/03/08 10:44:41;;;;;;;5.85;3.40;;;4.70;99.90;;;;;;4999206;28;20045;-92
2023/03/08 10:47:20;;;;;;;4.25;2.00;;;4.80;99.90;;;;;;5006168;28;20057;-92
2023/03/08 10:50:01;;;;;;;7.15;3.08;;;4.90;99.90;;;;;;5027139;28;20048;-92
2023/03/08 10:52:27;;;;;;;4.20;1.83;;;4.90;99.90;;;;;;5000987;28;20236;-93
2023/03/08 10:55:17;;;;;;;3.67;1.90;;;4.90;99.90;;;;;;4981771;28;20089;-87
2023/03/08 10:57:55;;;;;;;6.70;3.05;;;5.00;99.90;;;;;;5009160;28;20162;-87
2023/03/08 11:00:28;;;;;;;6.30;2.85;;;5.00;99.90;;;;;;5009577;28;20056;-88
2023/03/08 11:03:24;;;;;;;5.32;3.40;;;5.10;99.90;;;;;;5010554;28;20049;-86
2023/03/08 11:06:02;;;;;;;7.32;2.97;;;5.10;99.90;;;;;;4984584;28;20072;-87
2023/03/08 11:08:37;;;;;;;6.22;3.15;;;5.30;99.90;;;;;;4985462;28;20052;-87
2023/03/08 11:11:39;;;;;;;6.28;2.92;;;5.30;99.90;;;;;;4994351;28;20128;-87
2023/03/08 11:14:08;;;;;;;6.32;3.25;;;5.30;99.90;;;;;;5009167;28;20029;-90
2023/03/08 11:16:50;;;;;;;6.38;3.35;;;5.40;99.90;;;;;;5001764;28;20080;-89
2023/03/08 11:19:39;;;;;;;5.80;4.10;;;5.40;99.90;;;;;;4993847;28;20041;-89
2023/03/08 11:22:20;;;;;;;7.95;4.53;;;5.40;99.90;;;;;;4991263;28;20053;-89
2023/03/08 11:25:08;;;;;;;7.93;4.43;;;5.40;99.90;;;;;;5009069;28;20121;-88
2023/03/08 11:27:52;;;;;;;10.23;5.13;;;5.40;99.90;;;;;;5004779;28;20037;-89
2023/03/08 11:30:29;;;;;;;10.13;5.22;;;5.30;99.90;;;;;;4998598;28;20037;-89
2023/03/08 11:33:31;;;;;;;7.47;2.72;;;5.30;99.90;;;;;;4994249;28;20046;-89
2023/03/08 11:36:23;;;;;;;6.15;2.50;;;5.30;99.90;;;;;;4996141;28;20053;-89
2023/03/08 11:39:15;;;;;;;4.05;2.08;;;5.20;99.90;;;;;;4991044;28;20038;-89
2023/03/08 11:41:54;;;;;;;6.05;3.00;;;5.20;99.90;;;;;;4993427;28;20100;-89
2023/03/08 11:44:26;;;;;;;7.78;3.20;;;5.20;99.90;;;;;;4979859;28;20038;-89
2023/03/08 11:47:03;;;;;;;6.88;3.20;;;5.10;99.90;;;;;;5016942;28;20089;-89
2023/03/08 11:49:50;;;;;;;10.57;4.60;;;5.10;99.90;;;;;;4999248;28;20103;-90
2023/03/08 11:52:25;;;;;;;8.27;4.45;;;5.10;99.90;;;;;;5020562;28;20049;-89
2023/03/08 11:55:09;;;;;;;6.38;3.05;;;5.10;99.90;;;;;;4997336;28;20059;-89
2023/03/08 11:57:39;;;;;;;6.97;3.20;;;5.20;99.90;;;;;;4997953;28;20044;-89
2023/03/08 12:00:26;;;;;;;5.47;1.63;;;5.10;99.90;;;;;;5003354;28;20045;-89
2023/03/08 12:02:55;;;;;;;5.57;1.88;;;5.10;99.90;;;;;;5004480;28;20087;-89
2023/03/08 12:05:31;;;;;;;4.85;2.17;;;5.20;99.90;;;;;;5022542;28;20167;-90
2023/03/08 12:08:12;;;;;;;6.50;2.50;;;5.20;99.90;;;;;;5021736;28;20120;-89
2023/03/08 12:10:43;;;;;;;11.48;2.30;;;5.20;99.90;;;;;;5011362;28;20039;-90
2023/03/08 12:13:37;;;;;;;7.30;2.30;;;5.20;99.90;;;;;;5025558;28;20045;-86
2023/03/08 12:16:32;;;;;;;6.13;2.63;;;5.20;99.90;;;;;;5011018;28;20121;-88
2023/03/08 12:19:34;;;;;;;6.93;2.35;;;5.40;99.90;;;;;;5000192;28;20119;-86
2023/03/08 12:22:09;;;;;;;8.13;2.15;;;5.30;99.90;;;;;;5021965;28;20038;-96
2023/03/08 12:24:54;;;;;;;4.00;1.80;;;5.30;99.90;;;;;;5029374;22;20054;-96
2023/03/08 12:27:19;;;;;;;;;;;6.30;99.90;;;;;;5235429;22;20035;-96
2023/03/08 12:30:11;;;;;;;5.75;2.47;;;5.40;99.90;;;;;;5140679;23;19927;-96
2023/03/08 12:32:47;;;;;;;8.68;3.15;;;5.10;99.90;;;;;;5221373;22;20041;-96
2023/03/08 12:35:22;;;;;;;7.05;2.83;;;6.50;99.90;;;;;;5169512;23;20071;-96
2023/03/08 12:38:06;;;;;;;7.18;2.00;;;5.40;99.90;;;;;;5076961;28;20049;-96
2023/03/08 12:40:47;;;;;;;5.65;2.05;;;5.50;99.90;;;;;;5079545;28;20044;-95
2023/03/08 12:43:20;;;;;;;5.75;2.33;;;4.80;99.90;;;;;;5075120;28;20045;-95
2023/03/08 12:46:07;;;;;;;10.43;3.15;;;5.60;99.90;;;;;;5064850;28;20037;-96
2023/03/08 12:48:52;;;;;;;7.38;3.30;;;5.70;99.90;;;;;;5076822;28;20122;-96
2023/03/08 12:51:36;;;;;;;5.60;2.67;;;5.70;99.90;;;;;;5058747;28;20190;-96
2023/03/08 12:54:03;;;;;;;7.63;3.05;;;5.70;99.90;;;;;;5067905;28;20044;-96
2023/03/08 12:56:53;;;;;;;6.53;2.47;;;5.70;99.90;;;;;;5068217;28;20043;-96
2023/03/08 12:59:19;;;;;;;6.78;2.70;;;5.70;99.90;;;;;;5067993;28;20413;-96
2023/03/08 13:01:57;;;;;;;5.65;1.50;;;5.70;99.90;;;;;;5071006;28;20041;-95
2023/03/08 13:04:30;;;;;;;2.97;1.30;;;5.70;99.90;;;;;;5062129;28;20067;-94
2023/03/08 13:07:08;;;;;;;4.30;1.10;;;5.70;99.90;;;;;;5067861;28;20139;-95
2023/03/08 13:09:49;;;;;;;8.13;1.15;;;5.70;99.90;;;;;;5074139;28;20040;-95
2023/03/08 13:12:14;;;;;;;5.72;1.10;;;5.70;99.90;;;;;;5070778;28;20048;-95
2023/03/08 13:14:46;;;;;;;3.03;1.20;;;5.70;99.90;;;;;;5064769;28;20045;-95